sensor_id;sensor_type;location;lat;lon;timestamp;P1;durP1;ratioP1;P2;durP2;ratioP2
249;SDS011;109;19.806;-70.704;2023-03-15T00:01:19;144.50;;;32.43;;
249;SDS011;109;19.806;-70.704;2023-03-15T00:03:48;122.27;;;31.70;;
249;SDS011;109;19.806;-70.704;2023-03-15T00:06:15;93.87;;;28.40;;
249;SDS011;109;19.806;-70.704;2023-03-15T00:08:42;66.87;;;28.23;;
249;SDS011;109;19.806;-70.704;2023-03-15T00:11:12;79.50;;;27.57;;
249;SDS011;109;19.806;-70.704;2023-03-15T00:13:40;64.60;;;26.57;;
249;SDS011;109;19.806;-70.704;2023-03-15T00:16:07;70.23;;;29.70;;
249;SDS011;109;19.806;-70.704;2023-03-15T00:18:34;65.67;;;30.23;;
249;SDS011;109;19.806;-70.704;2023-03-15T00:21:00;60.73;;;29.07;;
249;SDS011;109;19.806;-70.704;2023-03-15T00:23:27;50.13;;;26.23;;
249;SDS011;109;19.806;-70.704;2023-03-15T00:25:53;55.80;;;26.27;;
249;SDS011;109;19.806;-70.704;2023-03-15T00:28:20;70.70;;;27.00;;
249;SDS011;109;19.806;-70.704;2023-03-15T00:30:46;49.20;;;25.93;;
249;SDS011;109;19.806;-70.704;2023-03-15T00:33:14;74.17;;;24.80;;
249;SDS011;109;19.806;-70.704;2023-03-15T00:35:42;45.17;;;24.30;;
249;SDS011;109;19.806;-70.704;2023-03-15T00:38:10;55.57;;;26.23;;
249;SDS011;109;19.806;-70.704;2023-03-15T00:40:40;48.63;;;25.97;;
249;SDS011;109;19.806;-70.704;2023-03-15T00:43:07;63.03;;;26.73;;
249;SDS011;109;19.806;-70.704;2023-03-15T00:45:33;60.20;;;25.83;;
249;SDS011;109;19.806;-70.704;2023-03-15T00:48:00;57.17;;;26.30;;
249;SDS011;109;19.806;-70.704;2023-03-15T00:50:27;78.60;;;28.80;;
249;SDS011;109;19.806;-70.704;2023-03-15T00:52:54;74.37;;;29.53;;
249;SDS011;109;19.806;-70.704;2023-03-15T00:55:27;72.17;;;29.73;;
249;SDS011;109;19.806;-70.704;2023-03-15T00:57:53;96.40;;;31.43;;
249;SDS011;109;19.806;-70.704;2023-03-15T01:00:26;91.57;;;31.80;;
249;SDS011;109;19.806;-70.704;2023-03-15T01:02:53;99.30;;;31.60;;
249;SDS011;109;19.806;-70.704;2023-03-15T01:05:26;72.57;;;30.63;;
249;SDS011;109;19.806;-70.704;2023-03-15T01:07:53;82.60;;;29.53;;
249;SDS011;109;19.806;-70.704;2023-03-15T01:10:26;73.47;;;29.00;;
249;SDS011;109;19.806;-70.704;2023-03-15T01:12:53;86.07;;;29.43;;
249;SDS011;109;19.806;-70.704;2023-03-15T01:15:27;71.80;;;28.03;;
249;SDS011;109;19.806;-70.704;2023-03-15T01:17:54;57.27;;;27.60;;
249;SDS011;109;19.806;-70.704;2023-03-15T01:20:27;54.80;;;27.53;;
249;SDS011;109;19.806;-70.704;2023-03-15T01:22:54;56.63;;;27.20;;
249;SDS011;109;19.806;-70.704;2023-03-15T01:25:27;48.10;;;26.73;;
249;SDS011;109;19.806;-70.704;2023-03-15T01:27:54;63.23;;;26.30;;
249;SDS011;109;19.806;-70.704;2023-03-15T01:30:27;55.83;;;27.60;;
249;SDS011;109;19.806;-70.704;2023-03-15T01:32:55;51.20;;;26.70;;
249;SDS011;109;19.806;-70.704;2023-03-15T01:35:35;47.03;;;27.60;;
249;SDS011;109;19.806;-70.704;2023-03-15T01:38:09;50.70;;;26.70;;
249;SDS011;109;19.806;-70.704;2023-03-15T01:40:43;75.63;;;28.33;;
249;SDS011;109;19.806;-70.704;2023-03-15T01:43:18;91.57;;;31.60;;
249;SDS011;109;19.806;-70.704;2023-03-15T01:51:36;130.10;;;32.13;;
249;SDS011;109;19.806;-70.704;2023-03-15T01:57:09;144.17;;;35.70;;
249;SDS011;109;19.806;-70.704;2023-03-15T02:00:07;183.30;;;36.00;;
249;SDS011;109;19.806;-70.704;2023-03-15T02:02:54;160.00;;;34.50;;
249;SDS011;109;19.806;-70.704;2023-03-15T02:05:33;110.50;;;35.77;;
249;SDS011;109;19.806;-70.704;2023-03-15T02:08:10;126.17;;;33.07;;
249;SDS011;109;19.806;-70.704;2023-03-15T02:10:41;135.67;;;34.80;;
249;SDS011;109;19.806;-70.704;2023-03-15T02:13:18;126.30;;;31.60;;
249;SDS011;109;19.806;-70.704;2023-03-15T02:15:59;81.00;;;28.60;;
249;SDS011;109;19.806;-70.704;2023-03-15T02:18:34;82.73;;;25.40;;
249;SDS011;109;19.806;-70.704;2023-03-15T02:21:11;57.37;;;21.47;;
249;SDS011;109;19.806;-70.704;2023-03-15T02:26:58;57.30;;;20.93;;
249;SDS011;109;19.806;-70.704;2023-03-15T02:29:31;56.47;;;23.17;;
249;SDS011;109;19.806;-70.704;2023-03-15T02:31:58;67.23;;;24.10;;
249;SDS011;109;19.806;-70.704;2023-03-15T02:34:35;61.87;;;21.30;;
249;SDS011;109;19.806;-70.704;2023-03-15T02:37:23;77.57;;;25.37;;
249;SDS011;109;19.806;-70.704;2023-03-15T02:39:56;73.83;;;23.17;;
249;SDS011;109;19.806;-70.704;2023-03-15T02:42:23;98.93;;;27.90;;
249;SDS011;109;19.806;-70.704;2023-03-15T02:44:56;62.27;;;24.83;;
249;SDS011;109;19.806;-70.704;2023-03-15T02:47:27;56.17;;;23.10;;
249;SDS011;109;19.806;-70.704;2023-03-15T02:50:04;71.40;;;23.03;;
249;SDS011;109;19.806;-70.704;2023-03-15T02:52:32;77.67;;;21.90;;
249;SDS011;109;19.806;-70.704;2023-03-15T02:55:06;60.10;;;20.50;;
249;SDS011;109;19.806;-70.704;2023-03-15T02:57:33;43.97;;;19.63;;
249;SDS011;109;19.806;-70.704;2023-03-15T03:00:07;56.37;;;20.37;;
249;SDS011;109;19.806;-70.704;2023-03-15T03:02:46;42.97;;;19.33;;
249;SDS011;109;19.806;-70.704;2023-03-15T03:05:14;48.30;;;21.83;;
249;SDS011;109;19.806;-70.704;2023-03-15T03:07:47;48.30;;;21.03;;
249;SDS011;109;19.806;-70.704;2023-03-15T03:10:16;61.40;;;21.60;;
249;SDS011;109;19.806;-70.704;2023-03-15T03:12:54;52.93;;;20.20;;
249;SDS011;109;19.806;-70.704;2023-03-15T03:15:44;56.63;;;20.27;;
249;SDS011;109;19.806;-70.704;2023-03-15T03:18:17;45.80;;;17.87;;
249;SDS011;109;19.806;-70.704;2023-03-15T03:20:44;36.40;;;17.23;;
249;SDS011;109;19.806;-70.704;2023-03-15T03:23:17;65.53;;;17.77;;
249;SDS011;109;19.806;-70.704;2023-03-15T03:25:44;46.97;;;19.80;;
249;SDS011;109;19.806;-70.704;2023-03-15T03:28:17;41.37;;;20.67;;
249;SDS011;109;19.806;-70.704;2023-03-15T03:30:44;39.63;;;20.27;;
249;SDS011;109;19.806;-70.704;2023-03-15T03:33:18;48.27;;;21.90;;
249;SDS011;109;19.806;-70.704;2023-03-15T03:35:46;39.30;;;22.10;;
249;SDS011;109;19.806;-70.704;2023-03-15T03:38:19;36.50;;;22.67;;
249;SDS011;109;19.806;-70.704;2023-03-15T03:41:00;40.53;;;21.97;;
249;SDS011;109;19.806;-70.704;2023-03-15T03:43:30;43.83;;;22.90;;
249;SDS011;109;19.806;-70.704;2023-03-15T03:46:03;41.23;;;22.70;;
249;SDS011;109;19.806;-70.704;2023-03-15T03:48:31;36.80;;;22.70;;
249;SDS011;109;19.806;-70.704;2023-03-15T03:51:05;42.30;;;22.60;;
249;SDS011;109;19.806;-70.704;2023-03-15T03:53:32;40.13;;;23.20;;
249;SDS011;109;19.806;-70.704;2023-03-15T03:56:05;37.27;;;23.70;;
249;SDS011;109;19.806;-70.704;2023-03-15T03:58:34;39.47;;;21.50;;
249;SDS011;109;19.806;-70.704;2023-03-15T04:01:37;38.03;;;21.40;;
249;SDS011;109;19.806;-70.704;2023-03-15T04:04:11;37.80;;;22.17;;
249;SDS011;109;19.806;-70.704;2023-03-15T04:06:41;28.10;;;18.80;;
249;SDS011;109;19.806;-70.704;2023-03-15T04:09:22;35.57;;;21.23;;
249;SDS011;109;19.806;-70.704;2023-03-15T04:11:56;31.47;;;20.23;;
249;SDS011;109;19.806;-70.704;2023-03-15T04:14:23;28.80;;;20.87;;
249;SDS011;109;19.806;-70.704;2023-03-15T04:16:57;30.40;;;19.33;;
249;SDS011;109;19.806;-70.704;2023-03-15T04:19:23;26.50;;;19.83;;
249;SDS011;109;19.806;-70.704;2023-03-15T04:21:57;29.37;;;18.73;;
249;SDS011;109;19.806;-70.704;2023-03-15T04:24:32;32.97;;;20.50;;
249;SDS011;109;19.806;-70.704;2023-03-15T04:27:13;36.00;;;19.43;;
249;SDS011;109;19.806;-70.704;2023-03-15T04:30:01;26.53;;;20.03;;
249;SDS011;109;19.806;-70.704;2023-03-15T04:33:00;29.43;;;19.70;;
249;SDS011;109;19.806;-70.704;2023-03-15T04:36:10;30.17;;;19.47;;
249;SDS011;109;19.806;-70.704;2023-03-15T04:39:15;35.07;;;21.50;;
249;SDS011;109;19.806;-70.704;2023-03-15T04:42:07;34.70;;;19.60;;
249;SDS011;109;19.806;-70.704;2023-03-15T04:44:55;36.53;;;19.63;;
249;SDS011;109;19.806;-70.704;2023-03-15T04:47:59;41.53;;;21.67;;
249;SDS011;109;19.806;-70.704;2023-03-15T04:50:58;31.03;;;20.30;;
249;SDS011;109;19.806;-70.704;2023-03-15T04:53:37;33.00;;;19.60;;
249;SDS011;109;19.806;-70.704;2023-03-15T04:56:36;38.10;;;21.47;;
249;SDS011;109;19.806;-70.704;2023-03-15T04:59:44;31.50;;;19.83;;
249;SDS011;109;19.806;-70.704;2023-03-15T05:02:39;30.53;;;20.03;;
249;SDS011;109;19.806;-70.704;2023-03-15T05:05:26;29.53;;;19.20;;
249;SDS011;109;19.806;-70.704;2023-03-15T05:08:12;27.20;;;19.30;;
249;SDS011;109;19.806;-70.704;2023-03-15T05:11:08;26.67;;;18.90;;
249;SDS011;109;19.806;-70.704;2023-03-15T05:13:57;30.10;;;19.60;;
249;SDS011;109;19.806;-70.704;2023-03-15T05:16:30;27.90;;;19.53;;
249;SDS011;109;19.806;-70.704;2023-03-15T05:19:20;28.87;;;19.90;;
249;SDS011;109;19.806;-70.704;2023-03-15T05:22:03;24.47;;;18.87;;
249;SDS011;109;19.806;-70.704;2023-03-15T05:24:55;31.90;;;20.47;;
249;SDS011;109;19.806;-70.704;2023-03-15T05:27:49;33.83;;;21.20;;
249;SDS011;109;19.806;-70.704;2023-03-15T05:30:43;28.93;;;20.43;;
249;SDS011;109;19.806;-70.704;2023-03-15T05:33:37;26.83;;;20.00;;
249;SDS011;109;19.806;-70.704;2023-03-15T05:36:38;30.30;;;21.00;;
249;SDS011;109;19.806;-70.704;2023-03-15T05:39:47;33.50;;;21.20;;
249;SDS011;109;19.806;-70.704;2023-03-15T05:42:45;33.50;;;22.43;;
249;SDS011;109;19.806;-70.704;2023-03-15T05:45:50;28.37;;;20.93;;
249;SDS011;109;19.806;-70.704;2023-03-15T05:48:32;34.87;;;23.40;;
249;SDS011;109;19.806;-70.704;2023-03-15T05:51:18;32.73;;;21.83;;
249;SDS011;109;19.806;-70.704;2023-03-15T05:54:11;31.20;;;23.10;;
249;SDS011;109;19.806;-70.704;2023-03-15T05:56:47;34.43;;;23.70;;
249;SDS011;109;19.806;-70.704;2023-03-15T05:59:21;31.23;;;23.13;;
249;SDS011;109;19.806;-70.704;2023-03-15T06:02:21;30.43;;;23.17;;
249;SDS011;109;19.806;-70.704;2023-03-15T06:05:10;32.27;;;23.40;;
249;SDS011;109;19.806;-70.704;2023-03-15T06:07:44;34.20;;;24.60;;
249;SDS011;109;19.806;-70.704;2023-03-15T06:10:13;28.53;;;22.30;;
249;SDS011;109;19.806;-70.704;2023-03-15T06:12:46;32.90;;;22.43;;
249;SDS011;109;19.806;-70.704;2023-03-15T06:15:14;33.07;;;21.83;;
249;SDS011;109;19.806;-70.704;2023-03-15T06:17:49;32.77;;;22.33;;
249;SDS011;109;19.806;-70.704;2023-03-15T06:20:16;29.20;;;20.80;;
249;SDS011;109;19.806;-70.704;2023-03-15T06:22:51;28.50;;;21.50;;
249;SDS011;109;19.806;-70.704;2023-03-15T06:25:27;32.97;;;22.67;;
249;SDS011;109;19.806;-70.704;2023-03-15T06:27:59;35.23;;;22.00;;
249;SDS011;109;19.806;-70.704;2023-03-15T06:30:26;35.17;;;21.90;;
249;SDS011;109;19.806;-70.704;2023-03-15T06:33:00;34.53;;;21.30;;
249;SDS011;109;19.806;-70.704;2023-03-15T06:35:34;27.67;;;20.30;;
249;SDS011;109;19.806;-70.704;2023-03-15T06:38:08;28.60;;;20.10;;
249;SDS011;109;19.806;-70.704;2023-03-15T06:40:47;32.60;;;20.77;;
249;SDS011;109;19.806;-70.704;2023-03-15T06:43:14;33.17;;;22.70;;
249;SDS011;109;19.806;-70.704;2023-03-15T06:45:50;30.00;;;23.70;;
249;SDS011;109;19.806;-70.704;2023-03-15T06:48:19;35.80;;;25.37;;
249;SDS011;109;19.806;-70.704;2023-03-15T06:50:53;31.77;;;23.93;;
249;SDS011;109;19.806;-70.704;2023-03-15T06:53:20;34.73;;;25.30;;
249;SDS011;109;19.806;-70.704;2023-03-15T06:55:53;33.07;;;26.13;;
249;SDS011;109;19.806;-70.704;2023-03-15T06:58:19;30.80;;;24.40;;
249;SDS011;109;19.806;-70.704;2023-03-15T07:00:53;37.77;;;26.57;;
249;SDS011;109;19.806;-70.704;2023-03-15T07:03:20;38.77;;;26.60;;
249;SDS011;109;19.806;-70.704;2023-03-15T07:05:55;35.57;;;26.40;;
249;SDS011;109;19.806;-70.704;2023-03-15T07:08:22;33.27;;;25.43;;
249;SDS011;109;19.806;-70.704;2023-03-15T07:10:55;41.50;;;25.43;;
249;SDS011;109;19.806;-70.704;2023-03-15T07:13:22;31.87;;;24.73;;
249;SDS011;109;19.806;-70.704;2023-03-15T07:15:56;31.33;;;25.50;;
249;SDS011;109;19.806;-70.704;2023-03-15T07:18:22;31.43;;;25.57;;
249;SDS011;109;19.806;-70.704;2023-03-15T07:20:59;30.87;;;23.40;;
249;SDS011;109;19.806;-70.704;2023-03-15T07:23:33;32.60;;;25.33;;
249;SDS011;109;19.806;-70.704;2023-03-15T07:26:00;31.30;;;24.20;;
249;SDS011;109;19.806;-70.704;2023-03-15T07:28:41;37.87;;;26.17;;
249;SDS011;109;19.806;-70.704;2023-03-15T07:31:15;32.10;;;26.07;;
249;SDS011;109;19.806;-70.704;2023-03-15T07:33:42;39.23;;;26.77;;
249;SDS011;109;19.806;-70.704;2023-03-15T07:36:14;37.40;;;26.60;;
249;SDS011;109;19.806;-70.704;2023-03-15T07:39:01;37.83;;;26.50;;
249;SDS011;109;19.806;-70.704;2023-03-15T07:41:35;37.17;;;26.60;;
249;SDS011;109;19.806;-70.704;2023-03-15T07:44:25;37.13;;;26.47;;
249;SDS011;109;19.806;-70.704;2023-03-15T07:46:57;31.57;;;25.30;;
249;SDS011;109;19.806;-70.704;2023-03-15T07:49:24;39.70;;;26.13;;
249;SDS011;109;19.806;-70.704;2023-03-15T07:51:57;43.00;;;26.70;;
249;SDS011;109;19.806;-70.704;2023-03-15T07:54:24;32.30;;;24.73;;
249;SDS011;109;19.806;-70.704;2023-03-15T07:56:56;31.80;;;24.77;;
249;SDS011;109;19.806;-70.704;2023-03-15T07:59:23;38.50;;;26.50;;
249;SDS011;109;19.806;-70.704;2023-03-15T08:01:55;35.43;;;27.60;;
249;SDS011;109;19.806;-70.704;2023-03-15T08:04:22;40.17;;;26.73;;
249;SDS011;109;19.806;-70.704;2023-03-15T08:06:55;41.93;;;27.57;;
249;SDS011;109;19.806;-70.704;2023-03-15T08:09:22;45.40;;;26.57;;
249;SDS011;109;19.806;-70.704;2023-03-15T08:11:56;37.73;;;26.13;;
249;SDS011;109;19.806;-70.704;2023-03-15T08:14:22;37.00;;;28.03;;
249;SDS011;109;19.806;-70.704;2023-03-15T08:16:56;43.10;;;27.27;;
249;SDS011;109;19.806;-70.704;2023-03-15T08:19:22;39.73;;;27.43;;
249;SDS011;109;19.806;-70.704;2023-03-15T08:21:55;32.90;;;25.53;;
249;SDS011;109;19.806;-70.704;2023-03-15T08:24:22;39.20;;;27.90;;
249;SDS011;109;19.806;-70.704;2023-03-15T08:26:54;39.40;;;29.80;;
249;SDS011;109;19.806;-70.704;2023-03-15T08:29:28;36.80;;;28.80;;
249;SDS011;109;19.806;-70.704;2023-03-15T08:32:02;43.67;;;29.97;;
249;SDS011;109;19.806;-70.704;2023-03-15T08:34:28;49.77;;;29.80;;
249;SDS011;109;19.806;-70.704;2023-03-15T08:37:03;42.63;;;30.60;;
249;SDS011;109;19.806;-70.704;2023-03-15T08:39:50;54.07;;;34.10;;
249;SDS011;109;19.806;-70.704;2023-03-15T08:42:31;51.63;;;35.57;;
249;SDS011;109;19.806;-70.704;2023-03-15T08:44:58;55.00;;;34.77;;
249;SDS011;109;19.806;-70.704;2023-03-15T08:47:33;53.07;;;34.23;;
249;SDS011;109;19.806;-70.704;2023-03-15T08:50:00;41.77;;;31.50;;
249;SDS011;109;19.806;-70.704;2023-03-15T08:52:37;39.93;;;29.50;;
249;SDS011;109;19.806;-70.704;2023-03-15T08:55:04;41.33;;;27.80;;
249;SDS011;109;19.806;-70.704;2023-03-15T08:57:37;36.10;;;27.87;;
249;SDS011;109;19.806;-70.704;2023-03-15T09:00:05;36.43;;;28.50;;
249;SDS011;109;19.806;-70.704;2023-03-15T09:02:40;35.83;;;27.73;;
249;SDS011;109;19.806;-70.704;2023-03-15T09:05:06;38.73;;;27.77;;
249;SDS011;109;19.806;-70.704;2023-03-15T09:07:43;36.83;;;26.77;;
249;SDS011;109;19.806;-70.704;2023-03-15T09:10:11;33.43;;;25.77;;
249;SDS011;109;19.806;-70.704;2023-03-15T09:12:50;40.57;;;27.93;;
249;SDS011;109;19.806;-70.704;2023-03-15T09:15:18;41.77;;;27.90;;
249;SDS011;109;19.806;-70.704;2023-03-15T09:17:59;41.93;;;28.93;;
249;SDS011;109;19.806;-70.704;2023-03-15T09:20:33;36.70;;;27.27;;
249;SDS011;109;19.806;-70.704;2023-03-15T09:22:59;41.60;;;28.27;;
249;SDS011;109;19.806;-70.704;2023-03-15T09:25:32;43.57;;;28.17;;
249;SDS011;109;19.806;-70.704;2023-03-15T09:28:02;37.13;;;28.67;;
249;SDS011;109;19.806;-70.704;2023-03-15T09:30:40;41.13;;;26.70;;
249;SDS011;109;19.806;-70.704;2023-03-15T09:33:07;37.17;;;27.30;;
249;SDS011;109;19.806;-70.704;2023-03-15T09:35:41;43.57;;;27.40;;
249;SDS011;109;19.806;-70.704;2023-03-15T09:38:27;37.13;;;27.03;;
249;SDS011;109;19.806;-70.704;2023-03-15T09:41:01;41.37;;;26.87;;
249;SDS011;109;19.806;-70.704;2023-03-15T09:43:38;41.50;;;26.97;;
249;SDS011;109;19.806;-70.704;2023-03-15T09:46:30;34.13;;;25.73;;
249;SDS011;109;19.806;-70.704;2023-03-15T10:00:35;36.63;;;26.73;;
249;SDS011;109;19.806;-70.704;2023-03-15T10:06:19;41.80;;;27.23;;
249;SDS011;109;19.806;-70.704;2023-03-15T10:08:58;40.10;;;27.70;;
249;SDS011;109;19.806;-70.704;2023-03-15T10:11:46;35.70;;;26.80;;
249;SDS011;109;19.806;-70.704;2023-03-15T10:20:02;38.27;;;25.77;;
249;SDS011;109;19.806;-70.704;2023-03-15T10:23:11;42.77;;;27.53;;
249;SDS011;109;19.806;-70.704;2023-03-15T10:25:50;43.23;;;27.30;;
249;SDS011;109;19.806;-70.704;2023-03-15T10:28:23;36.47;;;25.70;;
249;SDS011;109;19.806;-70.704;2023-03-15T10:33:35;38.87;;;24.80;;
249;SDS011;109;19.806;-70.704;2023-03-15T10:36:18;39.63;;;25.50;;
249;SDS011;109;19.806;-70.704;2023-03-15T10:38:47;36.63;;;25.00;;
249;SDS011;109;19.806;-70.704;2023-03-15T10:44:11;38.47;;;26.00;;
249;SDS011;109;19.806;-70.704;2023-03-15T10:47:10;45.07;;;27.17;;
249;SDS011;109;19.806;-70.704;2023-03-15T10:49:56;40.57;;;26.50;;
249;SDS011;109;19.806;-70.704;2023-03-15T10:52:32;38.07;;;26.43;;
249;SDS011;109;19.806;-70.704;2023-03-15T10:55:16;41.03;;;25.47;;
249;SDS011;109;19.806;-70.704;2023-03-15T10:57:56;40.07;;;26.20;;
249;SDS011;109;19.806;-70.704;2023-03-15T11:00:31;55.80;;;27.60;;
249;SDS011;109;19.806;-70.704;2023-03-15T11:03:06;46.60;;;26.60;;
249;SDS011;109;19.806;-70.704;2023-03-15T11:05:44;43.90;;;27.10;;
249;SDS011;109;19.806;-70.704;2023-03-15T11:08:17;53.93;;;26.97;;
249;SDS011;109;19.806;-70.704;2023-03-15T11:10:46;46.47;;;28.70;;
249;SDS011;109;19.806;-70.704;2023-03-15T11:13:21;46.87;;;26.60;;
249;SDS011;109;19.806;-70.704;2023-03-15T11:18:50;46.90;;;27.33;;
249;SDS011;109;19.806;-70.704;2023-03-15T11:21:23;51.13;;;29.10;;
249;SDS011;109;19.806;-70.704;2023-03-15T11:23:55;48.50;;;29.40;;
249;SDS011;109;19.806;-70.704;2023-03-15T11:26:23;49.10;;;28.97;;
249;SDS011;109;19.806;-70.704;2023-03-15T11:28:52;56.70;;;30.13;;
249;SDS011;109;19.806;-70.704;2023-03-15T11:31:25;68.90;;;31.83;;
249;SDS011;109;19.806;-70.704;2023-03-15T11:34:11;69.23;;;32.20;;
249;SDS011;109;19.806;-70.704;2023-03-15T11:36:40;64.57;;;32.87;;
249;SDS011;109;19.806;-70.704;2023-03-15T11:39:14;66.57;;;33.70;;
249;SDS011;109;19.806;-70.704;2023-03-15T11:41:52;78.53;;;34.13;;
249;SDS011;109;19.806;-70.704;2023-03-15T11:47:07;85.33;;;35.87;;
249;SDS011;109;19.806;-70.704;2023-03-15T11:52:18;51.07;;;32.40;;
249;SDS011;109;19.806;-70.704;2023-03-15T11:54:48;45.50;;;30.90;;
249;SDS011;109;19.806;-70.704;2023-03-15T11:57:34;46.83;;;29.20;;
249;SDS011;109;19.806;-70.704;2023-03-15T12:00:16;45.33;;;30.17;;
249;SDS011;109;19.806;-70.704;2023-03-15T12:06:11;41.33;;;30.17;;
249;SDS011;109;19.806;-70.704;2023-03-15T12:08:42;40.67;;;28.90;;
249;SDS011;109;19.806;-70.704;2023-03-15T12:14:19;42.77;;;29.63;;
249;SDS011;109;19.806;-70.704;2023-03-15T12:16:46;66.63;;;32.73;;
249;SDS011;109;19.806;-70.704;2023-03-15T12:19:13;44.30;;;31.33;;
249;SDS011;109;19.806;-70.704;2023-03-15T12:21:48;36.37;;;29.10;;
249;SDS011;109;19.806;-70.704;2023-03-15T12:24:35;38.27;;;28.70;;
249;SDS011;109;19.806;-70.704;2023-03-15T12:30:02;38.50;;;28.57;;
249;SDS011;109;19.806;-70.704;2023-03-15T12:32:29;42.77;;;30.77;;
249;SDS011;109;19.806;-70.704;2023-03-15T12:35:15;44.63;;;29.67;;
249;SDS011;109;19.806;-70.704;2023-03-15T12:37:45;46.60;;;30.03;;
249;SDS011;109;19.806;-70.704;2023-03-15T12:45:40;80.57;;;32.80;;
249;SDS011;109;19.806;-70.704;2023-03-15T12:55:55;84.90;;;33.43;;
249;SDS011;109;19.806;-70.704;2023-03-15T12:58:33;84.23;;;32.47;;
249;SDS011;109;19.806;-70.704;2023-03-15T13:01:03;78.50;;;31.60;;
249;SDS011;109;19.806;-70.704;2023-03-15T13:03:32;76.90;;;30.43;;
249;SDS011;109;19.806;-70.704;2023-03-15T13:11:30;71.63;;;30.97;;
249;SDS011;109;19.806;-70.704;2023-03-15T13:14:51;98.17;;;32.43;;
249;SDS011;109;19.806;-70.704;2023-03-15T13:22:51;62.97;;;29.93;;
249;SDS011;109;19.806;-70.704;2023-03-15T13:25:30;80.67;;;34.47;;
249;SDS011;109;19.806;-70.704;2023-03-15T13:28:15;95.43;;;35.60;;
249;SDS011;109;19.806;-70.704;2023-03-15T13:35:59;83.00;;;30.10;;
249;SDS011;109;19.806;-70.704;2023-03-15T13:38:27;74.93;;;28.87;;
249;SDS011;109;19.806;-70.704;2023-03-15T13:41:00;71.33;;;27.60;;
249;SDS011;109;19.806;-70.704;2023-03-15T13:43:30;76.87;;;29.50;;
249;SDS011;109;19.806;-70.704;2023-03-15T13:45:59;70.10;;;26.80;;
249;SDS011;109;19.806;-70.704;2023-03-15T13:48:31;95.23;;;31.40;;
249;SDS011;109;19.806;-70.704;2023-03-15T13:51:07;56.20;;;26.97;;
249;SDS011;109;19.806;-70.704;2023-03-15T13:53:48;73.00;;;29.53;;
249;SDS011;109;19.806;-70.704;2023-03-15T13:56:20;73.60;;;29.17;;
249;SDS011;109;19.806;-70.704;2023-03-15T13:58:56;68.87;;;28.37;;
249;SDS011;109;19.806;-70.704;2023-03-15T14:01:23;89.67;;;28.50;;
249;SDS011;109;19.806;-70.704;2023-03-15T14:03:58;72.80;;;27.93;;
249;SDS011;109;19.806;-70.704;2023-03-15T14:06:34;48.97;;;26.03;;
249;SDS011;109;19.806;-70.704;2023-03-15T14:09:06;50.27;;;23.07;;
249;SDS011;109;19.806;-70.704;2023-03-15T14:11:36;37.03;;;24.00;;
249;SDS011;109;19.806;-70.704;2023-03-15T14:16:46;70.57;;;24.63;;
249;SDS011;109;19.806;-70.704;2023-03-15T14:19:14;58.10;;;24.67;;
249;SDS011;109;19.806;-70.704;2023-03-15T14:21:44;57.67;;;25.47;;
249;SDS011;109;19.806;-70.704;2023-03-15T14:24:14;42.60;;;23.10;;
249;SDS011;109;19.806;-70.704;2023-03-15T14:26:56;50.60;;;21.53;;
249;SDS011;109;19.806;-70.704;2023-03-15T14:29:29;47.87;;;25.33;;
249;SDS011;109;19.806;-70.704;2023-03-15T14:31:58;69.67;;;27.20;;
249;SDS011;109;19.806;-70.704;2023-03-15T14:34:34;68.47;;;24.73;;
249;SDS011;109;19.806;-70.704;2023-03-15T14:37:30;41.20;;;23.00;;
249;SDS011;109;19.806;-70.704;2023-03-15T14:43:00;37.17;;;23.00;;
249;SDS011;109;19.806;-70.704;2023-03-15T14:45:29;54.43;;;24.60;;
249;SDS011;109;19.806;-70.704;2023-03-15T14:47:57;41.70;;;23.17;;
249;SDS011;109;19.806;-70.704;2023-03-15T14:50:26;55.27;;;22.93;;
249;SDS011;109;19.806;-70.704;2023-03-15T14:52:56;56.43;;;23.87;;
249;SDS011;109;19.806;-70.704;2023-03-15T14:55:26;33.87;;;21.60;;
249;SDS011;109;19.806;-70.704;2023-03-15T14:57:55;33.90;;;20.67;;
249;SDS011;109;19.806;-70.704;2023-03-15T15:00:22;53.10;;;23.90;;
249;SDS011;109;19.806;-70.704;2023-03-15T15:02:53;50.13;;;24.10;;
249;SDS011;109;19.806;-70.704;2023-03-15T15:05:28;54.17;;;23.93;;
249;SDS011;109;19.806;-70.704;2023-03-15T15:08:03;35.93;;;23.07;;
249;SDS011;109;19.806;-70.704;2023-03-15T15:10:41;44.17;;;22.07;;
249;SDS011;109;19.806;-70.704;2023-03-15T15:13:13;36.93;;;23.23;;
249;SDS011;109;19.806;-70.704;2023-03-15T15:15:43;48.27;;;22.80;;
249;SDS011;109;19.806;-70.704;2023-03-15T15:18:10;56.80;;;23.87;;
249;SDS011;109;19.806;-70.704;2023-03-15T15:20:36;64.43;;;24.60;;
249;SDS011;109;19.806;-70.704;2023-03-15T15:23:03;52.33;;;24.00;;
249;SDS011;109;19.806;-70.704;2023-03-15T15:25:29;40.53;;;22.17;;
249;SDS011;109;19.806;-70.704;2023-03-15T15:27:58;32.57;;;22.37;;
249;SDS011;109;19.806;-70.704;2023-03-15T15:30:24;39.93;;;22.43;;
249;SDS011;109;19.806;-70.704;2023-03-15T15:32:52;54.47;;;23.87;;
249;SDS011;109;19.806;-70.704;2023-03-15T15:35:19;49.33;;;21.90;;
249;SDS011;109;19.806;-70.704;2023-03-15T15:37:47;59.30;;;23.97;;
249;SDS011;109;19.806;-70.704;2023-03-15T15:40:15;45.87;;;23.13;;
249;SDS011;109;19.806;-70.704;2023-03-15T15:42:47;42.23;;;24.07;;
249;SDS011;109;19.806;-70.704;2023-03-15T15:45:14;43.70;;;22.63;;
249;SDS011;109;19.806;-70.704;2023-03-15T15:47:43;65.63;;;25.57;;
249;SDS011;109;19.806;-70.704;2023-03-15T15:50:11;65.20;;;26.60;;
249;SDS011;109;19.806;-70.704;2023-03-15T15:52:39;50.17;;;23.83;;
249;SDS011;109;19.806;-70.704;2023-03-15T15:55:11;53.30;;;25.30;;
249;SDS011;109;19.806;-70.704;2023-03-15T15:57:40;35.50;;;23.33;;
249;SDS011;109;19.806;-70.704;2023-03-15T16:00:12;72.63;;;25.10;;
249;SDS011;109;19.806;-70.704;2023-03-15T16:02:42;58.07;;;24.50;;
249;SDS011;109;19.806;-70.704;2023-03-15T16:05:09;48.70;;;22.60;;
249;SDS011;109;19.806;-70.704;2023-03-15T16:07:36;69.37;;;25.57;;
249;SDS011;109;19.806;-70.704;2023-03-15T16:10:05;47.23;;;23.30;;
249;SDS011;109;19.806;-70.704;2023-03-15T16:12:43;48.97;;;22.87;;
249;SDS011;109;19.806;-70.704;2023-03-15T16:15:11;35.17;;;22.93;;
249;SDS011;109;19.806;-70.704;2023-03-15T16:17:39;58.10;;;23.33;;
249;SDS011;109;19.806;-70.704;2023-03-15T16:20:06;45.73;;;23.47;;
249;SDS011;109;19.806;-70.704;2023-03-15T16:22:34;63.23;;;23.93;;
249;SDS011;109;19.806;-70.704;2023-03-15T16:25:04;47.90;;;24.03;;
249;SDS011;109;19.806;-70.704;2023-03-15T16:27:35;57.17;;;24.43;;
249;SDS011;109;19.806;-70.704;2023-03-15T16:30:02;81.63;;;26.63;;
249;SDS011;109;19.806;-70.704;2023-03-15T16:32:29;39.33;;;21.50;;
249;SDS011;109;19.806;-70.704;2023-03-15T16:34:56;41.83;;;22.73;;
249;SDS011;109;19.806;-70.704;2023-03-15T16:37:23;59.43;;;24.97;;
249;SDS011;109;19.806;-70.704;2023-03-15T16:39:53;77.67;;;29.13;;
249;SDS011;109;19.806;-70.704;2023-03-15T16:42:20;61.90;;;25.93;;
249;SDS011;109;19.806;-70.704;2023-03-15T16:44:49;67.63;;;26.27;;
249;SDS011;109;19.806;-70.704;2023-03-15T16:47:16;103.70;;;29.47;;
249;SDS011;109;19.806;-70.704;2023-03-15T16:49:43;62.27;;;26.93;;
249;SDS011;109;19.806;-70.704;2023-03-15T16:52:10;62.30;;;26.23;;
249;SDS011;109;19.806;-70.704;2023-03-15T16:54:39;51.43;;;24.13;;
249;SDS011;109;19.806;-70.704;2023-03-15T16:57:11;75.10;;;27.03;;
249;SDS011;109;19.806;-70.704;2023-03-15T16:59:41;80.40;;;27.50;;
249;SDS011;109;19.806;-70.704;2023-03-15T17:02:13;63.77;;;25.63;;